Time;durP1;ratioP1;P1;durP2;ratioP2;P2;SDS_P1;SDS_P2;PMS_P1;PMS_P2;Temp;Humidity;BMP_temperature;BMP_pressure;BME280_temperature;BME280_humidity;BME280_pressure;Samples;Min_cycle;Max_cycle;Signal;HPM_P1;HPM_P2
2024/01/27 00:01:50;;;;;;;29.52;4.65;;;4.00;95.30;;;;;;4903000;29;20425;-77
2024/01/27 00:04:16;;;;;;;26.85;4.15;;;4.00;95.30;;;;;;4901597;29;20447;-77
2024/01/27 00:06:41;;;;;;;26.60;4.17;;;4.00;95.10;;;;;;4898206;29;20423;-77
2024/01/27 00:09:07;;;;;;;29.98;4.25;;;4.00;95.20;;;;;;4885513;29;20486;-77
2024/01/27 00:11:33;;;;;;;27.75;4.38;;;3.90;95.40;;;;;;4884473;29;20419;-77
2024/01/27 00:14:02;;;;;;;23.93;4.37;;;3.90;95.80;;;;;;4876881;29;20417;-76
2024/01/27 00:16:28;;;;;;;21.48;3.83;;;3.90;95.80;;;;;;4887909;29;20847;-77
2024/01/27 00:18:54;;;;;;;30.33;4.43;;;4.00;96.00;;;;;;4893443;29;20422;-77
2024/01/27 00:21:19;;;;;;;30.87;4.70;;;4.00;96.10;;;;;;4888196;29;20934;-77
2024/01/27 00:23:45;;;;;;;24.65;4.10;;;4.00;96.00;;;;;;4884331;29;20470;-76
2024/01/27 00:26:11;;;;;;;25.77;3.77;;;4.00;96.20;;;;;;4887901;29;20421;-76
2024/01/27 00:28:36;;;;;;;22.20;4.03;;;4.00;95.80;;;;;;4867281;29;20763;-77
2024/01/27 00:31:02;;;;;;;25.77;4.03;;;3.90;95.70;;;;;;4889805;29;20421;-77
2024/01/27 00:33:28;;;;;;;32.13;4.57;;;3.90;95.70;;;;;;4875633;29;21000;-75
2024/01/27 00:35:54;;;;;;;29.27;4.50;;;3.90;95.70;;;;;;4888925;29;20425;-76
2024/01/27 00:38:19;;;;;;;27.42;4.10;;;3.90;95.80;;;;;;4892097;29;20430;-77
2024/01/27 00:40:45;;;;;;;23.38;3.97;;;3.90;96.10;;;;;;4896913;29;20452;-76
2024/01/27 00:43:10;;;;;;;24.70;4.00;;;3.90;96.40;;;;;;4860497;29;20442;-77
2024/01/27 00:45:36;;;;;;;28.03;4.97;;;3.90;96.70;;;;;;4886261;29;20405;-77
2024/01/27 00:48:02;;;;;;;25.15;4.13;;;3.90;96.60;;;;;;4890540;29;21015;-77
2024/01/27 00:50:27;;;;;;;23.67;3.87;;;3.90;96.80;;;;;;4876599;29;20443;-76
2024/01/27 00:52:53;;;;;;;23.15;3.78;;;4.00;96.90;;;;;;4873654;29;20933;-77
2024/01/27 00:55:19;;;;;;;26.42;4.07;;;4.00;96.60;;;;;;4886000;29;20416;-76
2024/01/27 00:57:44;;;;;;;23.50;4.23;;;4.00;96.70;;;;;;4889777;29;20763;-77
2024/01/27 01:00:11;;;;;;;25.20;4.43;;;4.00;96.60;;;;;;4865291;29;20426;-76
2024/01/27 01:02:37;;;;;;;25.40;4.50;;;4.00;96.30;;;;;;4873745;29;20451;-76
2024/01/27 01:05:04;;;;;;;23.58;4.07;;;4.00;96.40;;;;;;4885378;29;20528;-76
2024/01/27 01:07:30;;;;;;;27.25;3.72;;;3.90;96.30;;;;;;4857212;29;20536;-77
2024/01/27 01:09:56;;;;;;;28.17;5.07;;;3.90;96.30;;;;;;4885230;29;20417;-76
2024/01/27 01:12:21;;;;;;;25.87;4.40;;;3.90;96.40;;;;;;4882297;29;20431;-76
2024/01/27 01:14:47;;;;;;;28.60;5.07;;;3.90;96.60;;;;;;4886547;29;20491;-76
2024/01/27 01:17:13;;;;;;;26.67;4.03;;;3.90;96.80;;;;;;4875021;29;20426;-76
2024/01/27 01:19:40;;;;;;;23.88;3.78;;;3.90;96.70;;;;;;4878279;29;20511;-77
2024/01/27 01:22:06;;;;;;;28.27;4.28;;;3.90;96.70;;;;;;4891261;29;20411;-76
2024/01/27 01:24:31;;;;;;;21.97;3.70;;;3.90;96.70;;;;;;4861079;29;20512;-76
2024/01/27 01:26:57;;;;;;;28.97;5.10;;;3.80;96.60;;;;;;4891451;29;20419;-77
2024/01/27 01:29:23;;;;;;;24.33;4.15;;;3.80;96.60;;;;;;4887671;29;20420;-77
2024/01/27 01:31:49;;;;;;;26.23;4.23;;;3.80;96.70;;;;;;4891088;29;20425;-77
2024/01/27 01:34:14;;;;;;;32.27;5.10;;;3.80;96.70;;;;;;4885214;29;20476;-76
2024/01/27 01:36:40;;;;;;;24.90;4.55;;;3.70;96.80;;;;;;4890796;29;20470;-77
2024/01/27 01:39:06;;;;;;;31.10;4.25;;;3.70;97.10;;;;;;4887068;29;20419;-76
2024/01/27 01:41:32;;;;;;;21.85;3.88;;;3.70;97.10;;;;;;4889740;29;20418;-77
2024/01/27 01:43:58;;;;;;;26.80;3.97;;;3.70;97.30;;;;;;4886189;29;20808;-76
2024/01/27 01:46:23;;;;;;;29.50;4.07;;;3.70;97.30;;;;;;4889561;29;20415;-76
2024/01/27 01:48:50;;;;;;;29.93;4.00;;;3.70;97.30;;;;;;4885419;29;20424;-76
2024/01/27 01:51:18;;;;;;;22.60;3.70;;;3.70;97.30;;;;;;4889707;29;20438;-76
2024/01/27 01:53:47;;;;;;;22.02;3.70;;;3.70;97.40;;;;;;4885492;29;20439;-77
2024/01/27 01:56:15;;;;;;;26.17;3.78;;;3.70;97.20;;;;;;4889464;29;20427;-76
2024/01/27 01:58:40;;;;;;;23.15;4.65;;;3.60;97.10;;;;;;4885397;29;20784;-77
2024/01/27 02:01:06;;;;;;;31.83;4.73;;;3.60;97.10;;;;;;4889051;29;20415;-77
2024/01/27 02:03:32;;;;;;;27.90;4.60;;;3.50;97.00;;;;;;4883392;29;20444;-76
2024/01/27 02:05:57;;;;;;;28.57;4.67;;;3.50;97.10;;;;;;4881751;29;20925;-76
2024/01/27 02:08:23;;;;;;;28.25;4.10;;;3.50;97.30;;;;;;4884105;29;20432;-77
2024/01/27 02:10:48;;;;;;;30.10;4.55;;;3.50;97.40;;;;;;4888605;29;20437;-76
2024/01/27 02:13:21;;;;;;;26.47;4.43;;;3.40;97.40;;;;;;4876827;29;20420;-76
2024/01/27 02:15:48;;;;;;;26.88;4.40;;;3.40;97.60;;;;;;4891068;29;20438;-76
2024/01/27 02:18:14;;;;;;;30.17;4.32;;;3.50;97.80;;;;;;4867846;29;20422;-76
2024/01/27 02:20:40;;;;;;;27.55;4.53;;;3.50;98.10;;;;;;4872488;29;20514;-76
2024/01/27 02:23:06;;;;;;;25.20;4.35;;;3.50;98.10;;;;;;4884326;29;20495;-77
2024/01/27 02:25:33;;;;;;;25.17;4.40;;;3.50;98.10;;;;;;4889116;29;20426;-77
2024/01/27 02:27:58;;;;;;;22.30;3.97;;;3.50;98.10;;;;;;4875413;29;20417;-77
2024/01/27 02:30:24;;;;;;;29.23;4.50;;;3.60;98.30;;;;;;4881888;29;20425;-77
2024/01/27 02:32:55;;;;;;;25.83;4.30;;;3.60;98.30;;;;;;4864425;29;20465;-76
2024/01/27 02:35:20;;;;;;;28.02;3.97;;;3.60;98.30;;;;;;4882549;29;20466;-77
2024/01/27 02:37:46;;;;;;;24.87;3.80;;;3.60;98.20;;;;;;4885351;29;20424;-77
2024/01/27 02:40:12;;;;;;;22.33;4.13;;;3.60;98.00;;;;;;4889267;29;20423;-76
2024/01/27 02:42:37;;;;;;;27.95;4.22;;;3.50;98.20;;;;;;4865403;29;20419;-76
2024/01/27 02:45:04;;;;;;;27.13;4.17;;;3.50;98.10;;;;;;4882559;29;20846;-77
2024/01/27 02:47:29;;;;;;;27.05;4.38;;;3.50;98.10;;;;;;4866348;29;20940;-77
2024/01/27 02:49:55;;;;;;;24.83;3.70;;;3.50;98.10;;;;;;4882760;29;20465;-77
2024/01/27 02:52:21;;;;;;;29.15;4.75;;;3.40;98.10;;;;;;4866938;29;20484;-77
2024/01/27 02:54:47;;;;;;;25.30;3.65;;;3.50;98.60;;;;;;4873978;29;20420;-77
2024/01/27 02:57:13;;;;;;;25.77;4.03;;;3.50;98.70;;;;;;4857686;29;20437;-77
2024/01/27 02:59:39;;;;;;;25.98;4.00;;;3.50;98.60;;;;;;4877714;29;20419;-77
2024/01/27 03:02:08;;;;;;;23.92;4.60;;;3.50;98.80;;;;;;4882762;29;20822;-77
2024/01/27 03:04:33;;;;;;;24.63;3.60;;;3.60;98.80;;;;;;4873840;29;20444;-77
2024/01/27 03:06:59;;;;;;;25.70;3.80;;;3.60;98.80;;;;;;4874296;29;20503;-77
2024/01/27 03:09:25;;;;;;;27.90;4.90;;;3.50;98.60;;;;;;4860809;29;20442;-77
2024/01/27 03:11:50;;;;;;;28.43;4.30;;;3.60;98.80;;;;;;4854977;29;21088;-77
2024/01/27 03:14:16;;;;;;;21.20;3.70;;;3.60;98.80;;;;;;4873483;29;20862;-77
2024/01/27 03:16:43;;;;;;;25.53;4.30;;;3.60;98.70;;;;;;4877987;29;20423;-77
2024/01/27 03:19:09;;;;;;;24.35;3.83;;;3.50;98.60;;;;;;4878925;29;20425;-77
2024/01/27 03:21:34;;;;;;;20.77;3.60;;;3.50;98.50;;;;;;4858556;29;20437;-77
2024/01/27 03:24:00;;;;;;;25.08;4.57;;;3.50;98.40;;;;;;4873079;29;20470;-77
2024/01/27 03:26:26;;;;;;;24.13;3.70;;;3.50;98.50;;;;;;4883162;29;20458;-77
2024/01/27 03:28:51;;;;;;;24.02;3.95;;;3.50;98.60;;;;;;4883466;29;20928;-77
2024/01/27 03:31:17;;;;;;;24.03;4.57;;;3.50;98.80;;;;;;4895690;29;20481;-77
2024/01/27 03:33:42;;;;;;;25.17;4.53;;;3.50;98.80;;;;;;4895109;29;20423;-77
2024/01/27 03:36:12;;;;;;;24.40;3.90;;;3.40;98.60;;;;;;4848011;29;20837;-77
2024/01/27 03:38:40;;;;;;;23.70;3.67;;;3.40;98.60;;;;;;4872040;29;20418;-77
2024/01/27 03:41:06;;;;;;;24.55;3.83;;;3.40;98.50;;;;;;4894119;29;20456;-77
2024/01/27 03:43:32;;;;;;;24.75;3.97;;;3.40;98.40;;;;;;4895293;29;20484;-78
2024/01/27 03:45:58;;;;;;;25.23;4.22;;;3.40;98.40;;;;;;4893886;29;20411;-77
2024/01/27 03:48:24;;;;;;;19.55;3.58;;;3.30;98.40;;;;;;4894541;29;20913;-77
2024/01/27 03:50:50;;;;;;;27.10;4.53;;;3.30;98.20;;;;;;4893383;29;20481;-77
2024/01/27 03:53:15;;;;;;;22.90;3.53;;;3.30;98.30;;;;;;4876075;29;20515;-77
2024/01/27 03:55:41;;;;;;;24.48;3.92;;;3.20;98.40;;;;;;4888756;29;20421;-77
2024/01/27 03:58:06;;;;;;;23.03;3.43;;;3.20;98.50;;;;;;4893922;29;20474;-77
2024/01/27 04:00:33;;;;;;;22.13;3.78;;;3.20;98.50;;;;;;4893880;29;20418;-77
2024/01/27 04:02:59;;;;;;;25.17;4.25;;;3.20;98.60;;;;;;4857621;29;20430;-77
2024/01/27 04:05:25;;;;;;;25.10;3.92;;;3.20;98.60;;;;;;4871413;29;20408;-77
2024/01/27 04:07:51;;;;;;;23.27;3.72;;;3.10;98.70;;;;;;4884583;29;20430;-77
2024/01/27 04:10:18;;;;;;;24.77;3.80;;;3.10;98.70;;;;;;4882432;29;20424;-77
2024/01/27 04:12:43;;;;;;;20.42;3.40;;;3.10;98.80;;;;;;4864640;29;20427;-77
2024/01/27 04:15:10;;;;;;;21.13;3.33;;;3.10;98.70;;;;;;4857086;29;20438;-76
2024/01/27 04:17:36;;;;;;;24.47;4.03;;;3.10;98.60;;;;;;4877226;29;20457;-77
2024/01/27 04:20:02;;;;;;;22.65;4.03;;;3.10;98.70;;;;;;4876545;29;20468;-77
2024/01/27 04:22:28;;;;;;;23.27;4.00;;;3.10;98.70;;;;;;4876402;29;20832;-77
2024/01/27 04:24:54;;;;;;;22.73;3.87;;;3.00;98.80;;;;;;4875558;29;20444;-76
2024/01/27 04:27:19;;;;;;;26.00;3.57;;;3.10;99.10;;;;;;4877249;29;20983;-76
2024/01/27 04:29:45;;;;;;;24.13;3.53;;;3.00;99.10;;;;;;4877296;29;20473;-77
2024/01/27 04:32:12;;;;;;;18.60;3.65;;;3.00;99.10;;;;;;4875989;29;21032;-76
2024/01/27 04:34:38;;;;;;;22.73;3.85;;;3.00;99.20;;;;;;4876835;29;20421;-76
2024/01/27 04:37:04;;;;;;;22.67;3.57;;;3.00;99.30;;;;;;4856623;29;20460;-77
2024/01/27 04:39:29;;;;;;;27.47;3.77;;;3.00;99.10;;;;;;4870978;29;20548;-77
2024/01/27 04:41:55;;;;;;;22.77;3.45;;;3.00;99.10;;;;;;4876575;29;20428;-76
2024/01/27 04:44:21;;;;;;;26.50;4.53;;;3.00;99.10;;;;;;4876054;29;20527;-76
2024/01/27 04:46:48;;;;;;;16.90;3.10;;;2.90;99.10;;;;;;4876468;29;20460;-77
2024/01/27 04:49:15;;;;;;;19.13;3.30;;;2.90;99.30;;;;;;4877448;29;20452;-77
2024/01/27 04:51:41;;;;;;;22.33;3.85;;;2.90;99.40;;;;;;4864423;29;20419;-77
2024/01/27 04:54:07;;;;;;;22.70;3.63;;;3.00;99.60;;;;;;4876276;29;20507;-77
2024/01/27 04:56:33;;;;;;;18.98;3.42;;;2.90;99.60;;;;;;4864953;29;20472;-77
2024/01/27 04:58:58;;;;;;;24.53;4.07;;;2.90;99.60;;;;;;4857141;29;20415;-77
2024/01/27 05:01:24;;;;;;;24.50;4.68;;;2.90;99.80;;;;;;4875564;29;20764;-78
2024/01/27 05:03:49;;;;;;;20.38;3.75;;;3.00;99.80;;;;;;4876162;29;20531;-77
2024/01/27 05:06:16;;;;;;;24.90;3.93;;;2.90;99.80;;;;;;4876440;29;20421;-76
2024/01/27 05:08:41;;;;;;;18.40;4.20;;;3.00;99.80;;;;;;4875916;29;20429;-76
2024/01/27 05:11:07;;;;;;;21.73;3.65;;;2.90;99.80;;;;;;4876155;29;20480;-77
2024/01/27 05:13:33;;;;;;;20.90;3.40;;;2.90;99.70;;;;;;4874981;29;20907;-77
2024/01/27 05:15:58;;;;;;;26.87;4.07;;;2.90;99.80;;;;;;4858677;29;20420;-77
2024/01/27 05:18:24;;;;;;;24.42;3.85;;;2.90;99.90;;;;;;4856414;29;20528;-76
2024/01/27 05:20:49;;;;;;;27.33;4.57;;;3.00;99.90;;;;;;4875650;29;20786;-76
2024/01/27 05:23:15;;;;;;;21.47;3.60;;;3.00;99.90;;;;;;4886794;29;20420;-76
2024/01/27 05:25:40;;;;;;;24.95;4.75;;;3.00;99.90;;;;;;4892217;29;20423;-77
2024/01/27 05:28:06;;;;;;;24.10;3.80;;;3.10;99.90;;;;;;4892322;29;20961;-77
2024/01/27 05:30:32;;;;;;;21.75;3.42;;;3.10;99.90;;;;;;4892373;29;20415;-75
2024/01/27 05:32:57;;;;;;;26.20;3.67;;;3.20;99.90;;;;;;4892764;29;20422;-76
2024/01/27 05:35:23;;;;;;;21.17;3.85;;;3.20;99.90;;;;;;4890909;29;20512;-77
2024/01/27 05:37:50;;;;;;;24.58;4.28;;;3.20;99.90;;;;;;4892329;29;20419;-77
2024/01/27 05:40:16;;;;;;;19.17;3.23;;;3.20;99.90;;;;;;4891784;29;20510;-77
2024/01/27 05:42:43;;;;;;;19.97;4.10;;;3.20;99.90;;;;;;4893011;29;20498;-77
2024/01/27 05:45:10;;;;;;;20.92;3.35;;;3.20;99.90;;;;;;4886246;29;21019;-77
2024/01/27 05:47:35;;;;;;;23.27;3.53;;;3.20;99.90;;;;;;4886380;29;20414;-76
2024/01/27 05:50:01;;;;;;;22.93;4.20;;;3.10;99.90;;;;;;4875546;29;20502;-77
2024/01/27 05:52:27;;;;;;;19.98;3.80;;;3.10;99.90;;;;;;4892708;29;20479;-77
2024/01/27 05:54:53;;;;;;;23.93;4.30;;;3.10;99.90;;;;;;4891980;29;20414;-77
2024/01/27 05:57:18;;;;;;;24.20;3.93;;;3.10;99.90;;;;;;4892074;29;20423;-77
2024/01/27 05:59:45;;;;;;;23.63;4.10;;;3.10;99.90;;;;;;4890278;29;20501;-77
2024/01/27 06:02:10;;;;;;;23.83;4.38;;;3.10;99.90;;;;;;4881348;29;20511;-77
2024/01/27 06:04:36;;;;;;;23.97;4.00;;;3.10;99.90;;;;;;4875668;29;20505;-76
2024/01/27 06:07:01;;;;;;;19.58;3.67;;;3.10;99.90;;;;;;4877956;29;20417;-77
2024/01/27 06:09:27;;;;;;;25.10;4.30;;;3.00;99.90;;;;;;4893838;29;20455;-76
2024/01/27 06:11:52;;;;;;;23.30;3.85;;;3.00;99.90;;;;;;4893453;29;20423;-77
2024/01/27 06:14:18;;;;;;;21.37;3.60;;;3.00;99.90;;;;;;4876978;29;20425;-76
2024/01/27 06:16:44;;;;;;;27.48;4.10;;;2.90;99.90;;;;;;4893159;29;20452;-77
2024/01/27 06:19:09;;;;;;;21.00;3.65;;;3.00;99.90;;;;;;4905621;29;20426;-77
2024/01/27 06:21:35;;;;;;;22.37;3.97;;;2.90;99.90;;;;;;4893600;29;20463;-77
2024/01/27 06:24:00;;;;;;;26.48;4.65;;;2.90;99.90;;;;;;4873058;29;20440;-77
2024/01/27 06:26:26;;;;;;;20.60;3.67;;;2.90;99.90;;;;;;4869956;29;21017;-77
2024/01/27 06:28:52;;;;;;;21.73;3.67;;;2.90;99.90;;;;;;4911294;29;20889;-77
2024/01/27 06:31:17;;;;;;;22.77;3.45;;;2.90;99.90;;;;;;4894837;29;21357;-77
2024/01/27 06:33:43;;;;;;;23.40;3.87;;;2.90;99.90;;;;;;4894399;29;20518;-77
2024/01/27 06:36:09;;;;;;;23.08;3.40;;;2.90;99.90;;;;;;4911394;29;20451;-77
2024/01/27 06:38:37;;;;;;;22.30;4.07;;;2.90;99.90;;;;;;4904927;29;20481;-77
2024/01/27 06:41:03;;;;;;;23.40;4.07;;;2.90;99.90;;;;;;4888126;29;20421;-76
2024/01/27 06:43:29;;;;;;;26.20;3.75;;;2.90;99.90;;;;;;4910918;29;20522;-78
2024/01/27 06:45:56;;;;;;;20.25;3.20;;;2.80;99.90;;;;;;4911207;29;20498;-76
2024/01/27 06:48:25;;;;;;;27.30;3.65;;;2.80;99.90;;;;;;4912454;29;20416;-76
2024/01/27 06:50:50;;;;;;;19.85;3.35;;;2.80;99.90;;;;;;4913940;29;20516;-76
2024/01/27 06:53:16;;;;;;;19.97;3.23;;;2.80;99.90;;;;;;4914309;29;20962;-76
2024/01/27 06:55:42;;;;;;;26.45;3.25;;;2.80;99.90;;;;;;4913346;29;20409;-76
2024/01/27 06:58:07;;;;;;;28.17;4.20;;;2.70;99.90;;;;;;4912934;29;20419;-76
2024/01/27 07:00:33;;;;;;;23.42;3.28;;;2.70;99.90;;;;;;4895833;29;20424;-77
2024/01/27 07:02:59;;;;;;;24.23;3.47;;;2.70;99.90;;;;;;4897469;29;20419;-77
2024/01/27 07:05:24;;;;;;;21.52;3.72;;;2.70;99.90;;;;;;4909086;29;20871;-76
2024/01/27 07:07:50;;;;;;;28.27;4.10;;;2.70;99.90;;;;;;4889098;29;20421;-77
2024/01/27 07:10:15;;;;;;;21.40;3.80;;;2.70;99.90;;;;;;4857649;29;20455;-77
2024/01/27 07:12:41;;;;;;;27.95;3.97;;;2.70;99.90;;;;;;4866491;29;20807;-77
2024/01/27 07:15:07;;;;;;;18.63;3.40;;;2.70;99.90;;;;;;4879611;29;20430;-77
2024/01/27 07:17:32;;;;;;;25.65;3.90;;;2.70;99.90;;;;;;4895560;29;20485;-77
2024/01/27 07:19:58;;;;;;;25.10;3.85;;;2.80;99.90;;;;;;4864179;29;20422;-77
2024/01/27 07:22:24;;;;;;;18.67;3.60;;;2.70;99.90;;;;;;4894402;29;20469;-77
2024/01/27 07:24:51;;;;;;;26.07;3.67;;;2.70;99.90;;;;;;4895740;29;20474;-76
2024/01/27 07:27:18;;;;;;;26.98;3.63;;;2.70;99.90;;;;;;4874210;29;20428;-76
2024/01/27 07:29:43;;;;;;;22.67;3.78;;;2.70;99.90;;;;;;4889045;29;20438;-77
2024/01/27 07:32:13;;;;;;;18.48;3.97;;;2.70;99.90;;;;;;4893948;29;20450;-76
2024/01/27 07:34:43;;;;;;;24.83;3.97;;;2.80;99.90;;;;;;4895102;29;20506;-77
2024/01/27 07:37:09;;;;;;;24.50;4.57;;;2.70;99.90;;;;;;4855436;29;20491;-76
2024/01/27 07:39:35;;;;;;;28.88;4.60;;;2.80;99.90;;;;;;4894492;29;20419;-77
2024/01/27 07:42:01;;;;;;;31.73;4.05;;;2.70;99.90;;;;;;4871515;29;20470;-76
2024/01/27 07:44:27;;;;;;;22.87;3.97;;;2.70;99.90;;;;;;4893800;29;20491;-77
2024/01/27 07:46:52;;;;;;;19.05;4.03;;;2.70;99.90;;;;;;4894567;29;20419;-77
2024/01/27 07:49:18;;;;;;;19.53;4.00;;;2.70;99.90;;;;;;4894206;29;20426;-77
2024/01/27 07:51:44;;;;;;;26.10;4.10;;;2.70;99.90;;;;;;4894360;29;20470;-77
2024/01/27 07:54:09;;;;;;;25.48;4.30;;;2.70;99.90;;;;;;4894024;29;20439;-78
2024/01/27 07:56:35;;;;;;;25.07;3.97;;;2.70;99.90;;;;;;4894283;29;21350;-78
2024/01/27 07:59:01;;;;;;;22.52;3.70;;;2.70;99.90;;;;;;4877125;29;20419;-77
2024/01/27 08:01:26;;;;;;;23.35;3.65;;;2.70;99.90;;;;;;4887606;29;20880;-77
2024/01/27 08:03:52;;;;;;;27.47;3.87;;;2.70;99.90;;;;;;4858632;29;20477;-77
2024/01/27 08:06:27;;;;;;;28.85;3.97;;;2.70;99.90;;;;;;4857764;29;20426;-77
2024/01/27 08:08:52;;;;;;;25.07;4.40;;;2.80;99.90;;;;;;4872659;29;20764;-77
2024/01/27 08:11:18;;;;;;;23.83;4.00;;;2.80;99.90;;;;;;4877016;29;20431;-77
2024/01/27 08:13:44;;;;;;;22.50;3.75;;;2.80;99.90;;;;;;4876990;29;20448;-77
2024/01/27 08:16:12;;;;;;;26.60;4.35;;;2.90;99.90;;;;;;4876972;29;20427;-78
2024/01/27 08:18:45;;;;;;;21.30;4.00;;;2.90;99.90;;;;;;4876328;29;20799;-78
2024/01/27 08:21:13;;;;;;;24.10;3.97;;;2.90;99.90;;;;;;4876894;29;20416;-77
2024/01/27 08:23:39;;;;;;;20.40;3.60;;;3.00;99.90;;;;;;4859539;29;20943;-77
2024/01/27 08:26:05;;;;;;;23.00;4.53;;;3.00;99.90;;;;;;4877057;29;20428;-77
2024/01/27 08:28:30;;;;;;;22.25;3.83;;;3.10;99.90;;;;;;4876879;29;20417;-77
2024/01/27 08:30:56;;;;;;;23.80;4.20;;;3.10;99.90;;;;;;4876638;29;20413;-77
2024/01/27 08:33:21;;;;;;;24.55;4.85;;;3.20;99.90;;;;;;4864995;29;20548;-77
2024/01/27 08:35:51;;;;;;;18.30;4.20;;;3.30;99.90;;;;;;4877109;29;20788;-77
2024/01/27 08:38:17;;;;;;;21.40;4.10;;;3.30;99.90;;;;;;4875724;29;20420;-78
2024/01/27 08:40:42;;;;;;;18.67;4.15;;;3.40;99.90;;;;;;4876479;29;20584;-76
2024/01/27 08:43:09;;;;;;;25.20;4.45;;;3.50;99.90;;;;;;4877081;29;21024;-77
2024/01/27 08:45:37;;;;;;;25.17;4.90;;;3.50;99.90;;;;;;4875779;29;20417;-77
2024/01/27 08:48:03;;;;;;;22.90;4.75;;;3.60;99.90;;;;;;4877373;29;20419;-77
2024/01/27 08:50:29;;;;;;;26.40;4.80;;;3.60;99.90;;;;;;4864572;29;20440;-77
2024/01/27 08:52:54;;;;;;;24.00;4.93;;;3.60;99.90;;;;;;4864046;29;20447;-77
2024/01/27 08:55:23;;;;;;;20.93;4.47;;;3.70;99.90;;;;;;4881424;29;20796;-78
2024/01/27 08:57:49;;;;;;;23.60;4.63;;;3.70;99.90;;;;;;4878498;29;20930;-77
2024/01/27 09:00:16;;;;;;;24.27;4.72;;;3.70;99.90;;;;;;4875480;29;20424;-80
2024/01/27 09:02:45;;;;;;;20.23;4.95;;;3.80;99.90;;;;;;4859401;29;20423;-78
2024/01/27 09:05:11;;;;;;;20.48;5.00;;;3.80;99.90;;;;;;4875241;29;20863;-77
2024/01/27 09:07:36;;;;;;;22.25;5.00;;;3.90;99.90;;;;;;4880342;29;20421;-78
2024/01/27 09:10:02;;;;;;;19.53;4.30;;;3.90;99.90;;;;;;4872308;29;20436;-77
2024/01/27 09:12:28;;;;;;;23.03;4.87;;;3.90;99.90;;;;;;4855104;29;20438;-77
2024/01/27 09:14:54;;;;;;;22.50;4.67;;;3.90;99.90;;;;;;4874847;29;20435;-77
2024/01/27 09:17:22;;;;;;;20.98;5.07;;;4.00;99.90;;;;;;4878487;29;20441;-77
2024/01/27 09:19:48;;;;;;;29.70;5.20;;;4.10;99.90;;;;;;4875778;29;20424;-77
2024/01/27 09:22:14;;;;;;;23.87;4.57;;;4.10;99.90;;;;;;4876049;29;20420;-77
2024/01/27 09:24:40;;;;;;;21.75;5.03;;;4.20;99.90;;;;;;4876099;29;20440;-77
2024/01/27 09:27:06;;;;;;;19.15;4.53;;;4.20;99.90;;;;;;4856874;29;20415;-76
2024/01/27 09:29:31;;;;;;;21.58;5.38;;;4.30;99.90;;;;;;4869979;29;20472;-77
2024/01/27 09:31:57;;;;;;;23.60;5.03;;;4.30;99.90;;;;;;4870240;29;20860;-77
2024/01/27 09:34:23;;;;;;;22.52;5.20;;;4.40;99.90;;;;;;4870070;29;20419;-77
2024/01/27 09:36:48;;;;;;;22.60;4.63;;;4.50;99.90;;;;;;4875698;29;20460;-77
2024/01/27 09:39:14;;;;;;;26.97;5.87;;;4.50;99.90;;;;;;4875366;29;20420;-77
2024/01/27 09:41:40;;;;;;;24.35;5.43;;;4.60;99.90;;;;;;4878551;29;20544;-77
2024/01/27 09:44:09;;;;;;;30.87;6.17;;;4.60;99.90;;;;;;4876869;29;20436;-77
2024/01/27 09:46:38;;;;;;;27.73;5.85;;;4.70;99.90;;;;;;4872790;29;20439;-77
2024/01/27 09:49:09;;;;;;;19.50;4.75;;;4.70;99.90;;;;;;4876247;29;20690;-77
2024/01/27 09:51:34;;;;;;;25.90;6.30;;;4.80;99.90;;;;;;4875936;29;20432;-78
2024/01/27 09:54:00;;;;;;;26.93;6.17;;;4.80;99.90;;;;;;4875436;29;20799;-77
2024/01/27 09:56:26;;;;;;;25.65;6.97;;;4.90;99.90;;;;;;4876093;29;20953;-77
2024/01/27 09:58:55;;;;;;;21.77;5.85;;;4.90;99.90;;;;;;4876618;29;20432;-77
2024/01/27 10:01:24;;;;;;;23.33;6.30;;;5.00;99.90;;;;;;4874905;29;20417;-77
2024/01/27 10:03:49;;;;;;;22.63;6.57;;;5.00;99.90;;;;;;4874689;29;20930;-77
2024/01/27 10:06:15;;;;;;;21.07;6.43;;;5.10;99.90;;;;;;4886909;29;20494;-77
2024/01/27 10:08:41;;;;;;;23.65;6.60;;;5.10;99.90;;;;;;4878988;29;20536;-77
2024/01/27 10:11:08;;;;;;;26.83;6.65;;;5.20;99.90;;;;;;4887541;29;20442;-77
2024/01/27 10:13:34;;;;;;;25.30;6.95;;;5.20;99.90;;;;;;4841316;29;20504;-77
2024/01/27 10:16:08;;;;;;;25.30;6.83;;;5.30;99.90;;;;;;4880618;29;20419;-78
2024/01/27 10:18:34;;;;;;;23.48;6.63;;;5.30;99.90;;;;;;4878411;29;20791;-77
2024/01/27 10:21:00;;;;;;;20.92;6.70;;;5.40;99.90;;;;;;4877355;29;20448;-77
2024/01/27 10:23:26;;;;;;;28.52;7.05;;;5.40;99.90;;;;;;4885239;29;20773;-77
2024/01/27 10:25:53;;;;;;;26.67;6.90;;;5.50;99.90;;;;;;4885415;29;20428;-77
2024/01/27 10:28:18;;;;;;;21.65;6.50;;;5.50;99.90;;;;;;4878265;29;20524;-77
2024/01/27 10:30:45;;;;;;;24.33;6.23;;;5.60;99.90;;;;;;4891571;29;20482;-77
2024/01/27 10:33:14;;;;;;;21.73;6.75;;;5.70;99.90;;;;;;4873021;29;20952;-77
2024/01/27 10:35:43;;;;;;;23.08;6.85;;;5.70;99.90;;;;;;4889898;29;20406;-77
2024/01/27 10:38:10;;;;;;;22.20;6.80;;;5.80;99.90;;;;;;4872870;29;20525;-77
2024/01/27 10:40:39;;;;;;;19.40;5.70;;;5.90;99.90;;;;;;4882763;29;20516;-76
2024/01/27 10:43:08;;;;;;;21.83;6.20;;;6.00;99.90;;;;;;4885028;29;20504;-77
2024/01/27 10:45:40;;;;;;;20.95;6.85;;;6.30;99.90;;;;;;4891159;29;20434;-77
2024/01/27 10:48:14;;;;;;;18.90;5.25;;;7.10;99.90;;;;;;4854900;29;20445;-78
2024/01/27 10:50:41;;;;;;;19.65;5.30;;;8.00;99.90;;;;;;4882861;29;20510;-77
2024/01/27 10:53:16;;;;;;;18.88;5.38;;;8.70;99.50;;;;;;4888829;29;20421;-77
2024/01/27 10:55:43;;;;;;;18.52;4.78;;;9.30;92.50;;;;;;4885315;29;20432;-77
2024/01/27 10:58:11;;;;;;;17.30;5.80;;;9.80;91.40;;;;;;4877754;29;20533;-77
2024/01/27 11:00:38;;;;;;;18.05;4.65;;;10.20;76.60;;;;;;4888746;29;20421;-77
2024/01/27 11:03:07;;;;;;;19.38;5.03;;;10.50;77.70;;;;;;4874810;29;20462;-77
2024/01/27 11:05:35;;;;;;;17.45;4.68;;;10.80;66.40;;;;;;4882346;29;20508;-77
2024/01/27 11:08:02;;;;;;;17.00;4.93;;;10.80;40.80;;;;;;4864099;29;20449;-77
2024/01/27 11:10:35;;;;;;;18.33;4.60;;;10.80;57.50;;;;;;4844509;29;20457;-77
2024/01/27 11:13:01;;;;;;;14.80;3.97;;;11.10;54.20;;;;;;4874707;29;20427;-78
2024/01/27 11:15:27;;;;;;;17.38;4.18;;;11.50;52.10;;;;;;4889160;29;20453;-78
2024/01/27 11:17:58;;;;;;;17.00;4.10;;;12.10;54.70;;;;;;4876442;29;20464;-78
2024/01/27 11:20:24;;;;;;;20.60;5.00;;;12.50;40.30;;;;;;4884571;29;20424;-77
2024/01/27 11:22:49;;;;;;;18.10;4.63;;;12.90;29.80;;;;;;4885350;29;20412;-78
2024/01/27 11:25:19;;;;;;;15.13;3.60;;;13.20;21.20;;;;;;4882338;29;20902;-79
2024/01/27 11:27:48;;;;;;;14.38;3.83;;;13.30;27.00;;;;;;4882273;29;20436;-79
2024/01/27 11:30:33;;;;;;;19.52;4.47;;;13.40;1.00;;;;;;4882593;29;20979;-79
2024/01/27 11:33:01;;;;;;;15.43;3.75;;;13.60;3.40;;;;;;4871919;29;20430;-79
2024/01/27 11:35:27;;;;;;;16.85;4.57;;;13.60;3.40;;;;;;4888413;29;20767;-79
2024/01/27 11:37:54;;;;;;;15.25;3.75;;;13.70;1.00;;;;;;4881253;29;20436;-77
2024/01/27 11:40:19;;;;;;;16.38;3.85;;;13.90;1.00;;;;;;4888180;29;20423;-79
2024/01/27 11:43:02;;;;;;;16.48;3.95;;;13.90;1.00;;;;;;4890157;29;20549;-79
2024/01/27 11:45:30;;;;;;;18.98;4.60;;;14.00;1.00;;;;;;4885154;29;20446;-79
2024/01/27 11:47:56;;;;;;;15.80;4.25;;;14.00;1.00;;;;;;4886965;29;20535;-79
2024/01/27 11:50:23;;;;;;;14.43;3.72;;;13.90;1.00;;;;;;4865852;29;20458;-78
2024/01/27 11:52:49;;;;;;;16.25;4.25;;;13.50;1.00;;;;;;4865574;29;20428;-79
2024/01/27 11:55:15;;;;;;;13.48;3.67;;;12.90;1.00;;;;;;4873044;29;20502;-78
2024/01/27 11:57:44;;;;;;;16.95;3.92;;;12.30;1.00;;;;;;4887086;29;22083;-78
2024/01/27 12:00:13;;;;;;;15.95;4.38;;;11.80;1.00;;;;;;4883111;29;20428;-78
2024/01/27 12:02:39;;;;;;;13.68;3.70;;;11.30;1.00;;;;;;4879162;29;21332;-78
2024/01/27 12:05:06;;;;;;;18.45;4.03;;;10.80;9.90;;;;;;4868840;29;20438;-78
2024/01/27 12:07:31;;;;;;;17.92;4.38;;;10.40;9.70;;;;;;4888328;29;20616;-78
2024/01/27 12:09:57;;;;;;;21.20;4.93;;;10.10;19.90;;;;;;4873189;29;20840;-78
2024/01/27 12:12:23;;;;;;;18.42;4.60;;;9.90;24.90;;;;;;4889031;29;20425;-78
2024/01/27 12:14:50;;;;;;;17.20;3.93;;;9.70;27.40;;;;;;4893830;29;20415;-78
2024/01/27 12:17:16;;;;;;;18.13;4.40;;;9.70;32.00;;;;;;4885411;29;20457;-78
2024/01/27 12:19:53;;;;;;;20.20;4.45;;;9.50;36.40;;;;;;4892261;29;20917;-78
2024/01/27 12:22:25;;;;;;;18.15;4.07;;;9.50;38.20;;;;;;4873880;29;20431;-78
2024/01/27 12:24:51;;;;;;;16.17;3.92;;;9.50;35.60;;;;;;4881514;29;20447;-78
2024/01/27 12:27:17;;;;;;;22.33;4.47;;;9.50;40.10;;;;;;4880755;29;20826;-78
2024/01/27 12:29:43;;;;;;;19.60;4.53;;;9.40;39.70;;;;;;4862934;29;20454;-78
2024/01/27 12:32:09;;;;;;;20.25;4.78;;;9.50;40.80;;;;;;4865348;29;20529;-78
2024/01/27 12:34:40;;;;;;;18.33;4.03;;;9.60;43.00;;;;;;4880923;29;20513;-78
2024/01/27 12:37:08;;;;;;;17.50;3.95;;;9.70;43.50;;;;;;4885517;29;20503;-80
2024/01/27 12:39:33;;;;;;;15.82;3.95;;;9.90;41.60;;;;;;4886450;29;20441;-79
2024/01/27 12:41:59;;;;;;;21.07;4.33;;;10.00;43.10;;;;;;4889632;29;20984;-78